createdAt,value
2018-04-28T00:02:50.743Z,10.50
2018-04-28T00:06:55.039Z,10.60
2018-04-28T00:10:57.655Z,10.60
2018-04-28T00:15:00.175Z,10.50
2018-04-28T00:19:06.331Z,10.60
2018-04-28T00:23:11.365Z,10.50
2018-04-28T00:32:00.616Z,10.40
2018-04-28T00:36:08.859Z,10.30
2018-04-28T00:40:23.047Z,10.20
2018-04-28T00:44:25.940Z,10.20
2018-04-28T00:48:30.094Z,10.10
2018-04-28T00:52:33.579Z,10.10
2018-04-28T00:56:36.093Z,10.00
2018-04-28T01:00:56.531Z,10.10
2018-04-28T01:04:59.190Z,10.00
2018-04-28T01:09:01.730Z,9.80
2018-04-28T01:13:08.100Z,9.80
2018-04-28T01:17:25.646Z,9.80
2018-04-28T01:21:37.763Z,9.80
2018-04-28T01:25:57.394Z,9.90
2018-04-28T01:34:37.163Z,9.90
2018-04-28T01:38:40.390Z,10.00
2018-04-28T01:47:23.660Z,10.00
2018-04-28T01:51:32.194Z,10.10
2018-04-28T01:55:50.399Z,10.10
2018-04-28T02:00:00.795Z,10.10
2018-04-28T02:04:14.823Z,10.10
2018-04-28T02:08:17.542Z,10.10
2018-04-28T02:12:31.711Z,10.30
2018-04-28T02:16:37.950Z,10.30
2018-04-28T02:20:52.283Z,10.10
2018-04-28T02:25:16.134Z,10.00
2018-04-28T02:29:22.003Z,10.10
2018-04-28T02:33:25.325Z,10.10
2018-04-28T02:42:04.286Z,10.50
2018-04-28T02:46:09.407Z,10.70
2018-04-28T02:50:21.763Z,10.60
2018-04-28T02:54:26.070Z,10.80
2018-04-28T02:58:34.179Z,10.90
2018-04-28T03:02:40.223Z,11.00
2018-04-28T03:11:13.275Z,10.90
2018-04-28T03:15:16.942Z,10.90
2018-04-28T03:19:20.214Z,10.90
2018-04-28T03:23:27.383Z,10.90
2018-04-28T03:32:10.092Z,11.00
2018-04-28T03:36:14.283Z,11.10
2018-04-28T03:40:16.814Z,11.00
2018-04-28T03:49:11.234Z,10.90
2018-04-28T03:53:32.275Z,10.90
2018-04-28T03:57:47.528Z,10.90
2018-04-28T04:02:01.826Z,10.80
2018-04-28T04:06:09.644Z,10.90
2018-04-28T04:10:29.826Z,10.90
2018-04-28T04:19:38.152Z,10.90
2018-04-28T04:23:52.451Z,10.90
2018-04-28T04:32:31.367Z,10.90
2018-04-28T04:36:49.290Z,11.00
2018-04-28T04:40:58.670Z,11.10
2018-04-28T04:45:07.932Z,11.10
2018-04-28T04:49:19.497Z,11.10
2018-04-28T04:58:05.318Z,11.20
2018-04-28T05:02:30.234Z,11.30
2018-04-28T05:06:51.271Z,11.40
2018-04-28T05:11:16.238Z,11.50
2018-04-28T05:15:35.153Z,11.50
2018-04-28T05:19:44.502Z,11.60
2018-04-28T05:24:13.626Z,11.80
2018-04-28T05:28:27.975Z,11.80
2018-04-28T05:37:20.867Z,11.90
2018-04-28T05:41:36.172Z,11.90
2018-04-28T05:46:00.251Z,12.00
2018-04-28T05:50:28.130Z,12.00
2018-04-28T05:59:36.046Z,12.10
2018-04-28T06:08:41.031Z,12.10
2018-04-28T06:12:48.099Z,12.10
2018-04-28T06:21:33.094Z,12.20
2018-04-28T06:25:35.730Z,12.30
2018-04-28T06:29:38.262Z,12.40
2018-04-28T06:33:41.582Z,12.50
2018-04-28T06:37:44.143Z,12.50
2018-04-28T06:41:46.823Z,12.50
2018-04-28T06:45:49.341Z,12.60
2018-04-28T06:49:51.882Z,12.80
2018-04-28T06:53:54.398Z,13.00
2018-04-28T06:57:57.271Z,13.50
2018-04-28T07:01:59.777Z,14.90
2018-04-28T07:06:03.431Z,16.00
2018-04-28T07:10:06.098Z,17.30
2018-04-28T07:14:11.913Z,18.50
2018-04-28T07:18:17.579Z,19.20
2018-04-28T07:22:20.121Z,19.80
2018-04-28T07:26:23.639Z,20.10
2018-04-28T07:30:40.703Z,20.50
2018-04-28T07:34:43.419Z,20.50
2018-04-28T07:38:50.927Z,21.10
2018-04-28T07:42:53.446Z,21.00
2018-04-28T07:46:56.750Z,22.00
2018-04-28T07:51:02.254Z,21.90
2018-04-28T07:55:10.367Z,22.30
2018-04-28T07:59:12.887Z,22.30
2018-04-28T08:03:19.015Z,22.20
2018-04-28T08:07:22.466Z,22.90
2018-04-28T08:11:25.185Z,23.70
2018-04-28T08:15:28.159Z,23.00
2018-04-28T08:19:30.831Z,23.10
2018-04-28T08:23:33.353Z,22.50
2018-04-28T08:27:36.790Z,24.00
2018-04-28T08:31:39.322Z,23.90
2018-04-28T08:35:46.270Z,24.40
2018-04-28T08:39:57.011Z,22.10
2018-04-28T08:43:59.659Z,21.70
2018-04-28T08:48:02.182Z,22.50
2018-04-28T08:52:04.726Z,23.80
2018-04-28T08:56:07.390Z,24.20
2018-04-28T09:00:21.778Z,24.50
2018-04-28T09:04:28.346Z,23.90
2018-04-28T09:08:30.899Z,22.60
2018-04-28T09:12:35.402Z,22.70
2018-04-28T09:16:37.961Z,23.60
2018-04-28T09:20:41.265Z,24.10
2018-04-28T09:24:45.808Z,24.00
2018-04-28T09:28:48.322Z,23.90
2018-04-28T09:32:50.866Z,22.80
2018-04-28T09:36:53.471Z,21.10
2018-04-28T09:40:56.861Z,19.50
2018-04-28T09:44:59.384Z,19.40
2018-04-28T09:49:11.779Z,20.00
2018-04-28T09:53:16.569Z,20.50
2018-04-28T09:57:19.123Z,20.00
2018-04-28T10:01:21.643Z,19.90
2018-04-28T10:05:24.193Z,20.50
2018-04-28T10:09:27.470Z,20.20
2018-04-28T10:13:47.453Z,20.10
2018-04-28T10:17:49.987Z,20.00
2018-04-28T10:21:52.535Z,19.80
2018-04-28T10:25:55.052Z,19.40
2018-04-28T10:30:08.387Z,19.50
2018-04-28T10:34:14.462Z,19.70
2018-04-28T10:38:17.007Z,20.10
2018-04-28T10:42:19.551Z,19.90
2018-04-28T10:46:22.443Z,19.40
2018-04-28T10:50:30.885Z,19.20
2018-04-28T10:54:34.428Z,19.10
2018-04-28T10:58:37.731Z,19.00
2018-04-28T11:02:40.453Z,18.90
2018-04-28T11:06:52.710Z,19.30
2018-04-28T11:10:56.027Z,19.80
2018-04-28T11:14:59.310Z,19.30
2018-04-28T11:19:03.167Z,19.20
2018-04-28T11:23:05.675Z,19.40
2018-04-28T11:27:08.235Z,19.60
2018-04-28T11:31:10.747Z,20.10
2018-04-28T11:35:13.286Z,20.00
2018-04-28T11:39:15.810Z,19.90
2018-04-28T11:43:19.121Z,19.70
2018-04-28T11:47:22.403Z,19.60
2018-04-28T11:51:25.035Z,19.60
2018-04-28T11:55:37.511Z,19.60
2018-04-28T11:59:41.216Z,19.50
2018-04-28T12:03:43.739Z,19.40
2018-04-28T12:07:50.659Z,20.00
2018-04-28T12:11:53.196Z,20.00
2018-04-28T12:16:00.035Z,20.00
2018-04-28T12:20:02.550Z,20.20
2018-04-28T12:24:05.958Z,20.10
2018-04-28T12:28:08.467Z,20.00
2018-04-28T12:32:11.093Z,20.10
2018-04-28T12:36:14.375Z,20.30
2018-04-28T12:40:16.931Z,20.20
2018-04-28T12:44:20.215Z,20.10
2018-04-28T12:48:23.088Z,20.00
2018-04-28T12:52:25.658Z,20.20
2018-04-28T12:56:28.300Z,20.30
2018-04-28T13:00:30.820Z,20.20
2018-04-28T13:04:33.368Z,19.90
2018-04-28T13:08:35.922Z,20.00
2018-04-28T13:12:38.464Z,20.00
2018-04-28T13:16:40.983Z,19.70
2018-04-28T13:20:51.150Z,19.70
2018-04-28T13:24:53.663Z,19.90
2018-04-28T13:28:56.214Z,20.10
2018-04-28T13:32:59.487Z,20.00
2018-04-28T13:37:02.329Z,20.00
2018-04-28T13:41:04.870Z,19.90
2018-04-28T13:45:10.911Z,19.80
2018-04-28T13:49:13.431Z,19.90
2018-04-28T13:53:17.026Z,20.20
2018-04-28T13:57:19.543Z,20.20
2018-04-28T14:01:29.610Z,20.20
2018-04-28T14:05:32.122Z,20.10
2018-04-28T14:09:53.742Z,20.10
2018-04-28T14:13:57.179Z,20.10
2018-04-28T14:18:00.512Z,20.20
2018-04-28T14:22:03.036Z,20.10
2018-04-28T14:26:05.617Z,20.20
2018-04-28T14:30:08.144Z,20.10
2018-04-28T14:34:17.731Z,20.10
2018-04-28T14:38:26.723Z,20.00
2018-04-28T14:42:40.144Z,20.00
2018-04-28T14:47:05.917Z,19.80
2018-04-28T14:51:09.557Z,19.40
2018-04-28T14:55:12.867Z,19.20
2018-04-28T14:59:16.275Z,19.10
2018-04-28T15:03:23.767Z,19.10
2018-04-28T15:07:29.909Z,19.00
2018-04-28T15:11:33.207Z,19.10
2018-04-28T15:15:35.839Z,19.10
2018-04-28T15:19:39.126Z,19.30
2018-04-28T15:23:41.773Z,19.20
2018-04-28T15:27:45.064Z,19.30
2018-04-28T15:31:47.635Z,19.30
2018-04-28T15:35:50.230Z,19.20
2018-04-28T15:39:52.795Z,19.10
2018-04-28T15:43:55.324Z,19.00
2018-04-28T15:47:58.656Z,18.90
2018-04-28T15:52:01.957Z,18.80
2018-04-28T15:56:04.561Z,18.80
2018-04-28T16:00:09.097Z,18.80
2018-04-28T16:04:35.520Z,18.70
2018-04-28T16:08:38.059Z,18.70
2018-04-28T16:12:40.695Z,18.60
2018-04-28T16:16:46.534Z,18.50
2018-04-28T16:20:49.080Z,18.40
2018-04-28T16:24:51.600Z,18.30
2018-04-28T16:28:55.255Z,18.20
2018-04-28T16:32:57.860Z,18.20
2018-04-28T16:37:02.454Z,18.20
2018-04-28T16:41:08.615Z,18.20
2018-04-28T16:45:12.105Z,18.20
2018-04-28T16:49:16.972Z,18.10
2018-04-28T16:53:20.297Z,18.00
2018-04-28T16:57:23.622Z,17.90
2018-04-28T17:01:26.946Z,17.80
2018-04-28T17:05:30.598Z,17.80
2018-04-28T17:09:34.110Z,17.70
2018-04-28T17:13:37.388Z,17.60
2018-04-28T17:17:53.210Z,17.50
2018-04-28T17:21:55.742Z,17.40
2018-04-28T17:25:58.445Z,17.10
2018-04-28T17:30:01.120Z,16.90
2018-04-28T17:34:03.746Z,16.80
2018-04-28T17:38:06.267Z,16.80
2018-04-28T17:42:08.862Z,16.50
2018-04-28T17:46:12.368Z,16.40
2018-04-28T17:50:14.932Z,16.30
2018-04-28T17:54:17.507Z,16.10
2018-04-28T17:58:20.368Z,16.10
2018-04-28T18:02:22.924Z,16.10
2018-04-28T18:06:25.503Z,15.90
2018-04-28T18:10:30.115Z,15.80
2018-04-28T18:14:32.775Z,15.80
2018-04-28T18:18:39.637Z,15.70
2018-04-28T18:22:51.693Z,15.60
2018-04-28T18:27:00.485Z,15.50
2018-04-28T18:31:03.164Z,15.50
2018-04-28T18:35:05.889Z,15.30
2018-04-28T18:39:10.302Z,15.20
2018-04-28T18:43:13.869Z,15.20
2018-04-28T18:47:16.899Z,15.10
2018-04-28T18:51:22.597Z,15.10
2018-04-28T18:55:26.676Z,15.30
2018-04-28T18:59:29.571Z,15.30
2018-04-28T19:03:32.170Z,15.20
2018-04-28T19:07:36.714Z,15.10
2018-04-28T19:11:40.670Z,15.10
2018-04-28T19:15:43.354Z,15.00
2018-04-28T19:19:46.985Z,15.00
2018-04-28T19:23:53.783Z,14.90
2018-04-28T19:27:56.883Z,15.00
2018-04-28T19:31:59.680Z,15.00
2018-04-28T19:36:02.624Z,14.80
2018-04-28T19:40:06.319Z,14.50
2018-04-28T19:44:12.238Z,14.40
2018-04-28T19:48:14.818Z,14.50
2018-04-28T19:52:23.171Z,14.60
2018-04-28T19:56:25.812Z,14.70
2018-04-28T20:00:29.758Z,14.50
2018-04-28T20:04:32.338Z,14.40
2018-04-28T20:08:34.931Z,14.60
2018-04-28T20:12:38.525Z,14.40
2018-04-28T20:16:41.844Z,14.70
2018-04-28T20:20:44.536Z,14.50
2018-04-28T20:24:58.894Z,14.20
2018-04-28T20:29:02.480Z,14.10
2018-04-28T20:33:06.103Z,14.00
2018-04-28T20:37:08.692Z,14.00
2018-04-28T20:41:15.370Z,14.10
2018-04-28T20:45:18.000Z,14.00
2018-04-28T20:49:21.662Z,14.20
2018-04-28T20:53:24.244Z,14.20
2018-04-28T20:57:27.215Z,14.00
2018-04-28T21:01:29.815Z,14.00
2018-04-28T21:05:37.004Z,13.70
2018-04-28T21:09:39.624Z,13.50
2018-04-28T21:13:42.196Z,13.50
2018-04-28T21:17:45.520Z,13.50
2018-04-28T21:21:50.191Z,13.50
2018-04-28T21:25:53.512Z,13.40
2018-04-28T21:29:56.135Z,13.30
2018-04-28T21:33:59.908Z,13.60
2018-04-28T21:38:02.749Z,13.50
2018-04-28T21:42:05.287Z,13.30
2018-04-28T21:46:08.868Z,13.20
2018-04-28T21:50:11.383Z,13.10
2018-04-28T21:54:14.008Z,13.10
2018-04-28T21:58:17.324Z,12.80
2018-04-28T22:02:20.256Z,12.80
2018-04-28T22:06:23.546Z,13.10
2018-04-28T22:10:26.148Z,13.00
2018-04-28T22:14:32.935Z,13.00
2018-04-28T22:18:40.904Z,13.00
2018-04-28T22:22:43.418Z,12.90
2018-04-28T22:26:46.054Z,12.90
2018-04-28T22:30:48.568Z,12.70
2018-04-28T22:34:57.179Z,12.70
2018-04-28T22:38:59.694Z,12.60
2018-04-28T22:43:02.344Z,12.50
2018-04-28T22:47:04.858Z,12.50
2018-04-28T22:51:07.508Z,12.40
2018-04-28T22:55:10.794Z,12.70
2018-04-28T22:59:13.458Z,12.60
2018-04-28T23:03:15.963Z,12.80
2018-04-28T23:07:28.223Z,12.70
2018-04-28T23:11:30.749Z,12.50
2018-04-28T23:15:36.778Z,12.30
2018-04-28T23:19:47.274Z,11.80
2018-04-28T23:23:49.840Z,11.80
2018-04-28T23:27:52.347Z,11.70
2018-04-28T23:31:54.882Z,11.60
2018-04-28T23:35:58.171Z,11.90
2018-04-28T23:40:00.719Z,11.80
2018-04-28T23:44:09.581Z,11.70
2018-04-28T23:48:12.227Z,11.80
2018-04-28T23:52:14.745Z,11.70
2018-04-28T23:56:17.411Z,11.50
